createdAt,value
2019-03-28T00:02:03.252Z,12.20
2019-03-28T00:04:34.586Z,12.30
2019-03-28T00:07:05.965Z,12.30
2019-03-28T00:09:37.142Z,12.20
2019-03-28T00:12:08.391Z,12.20
2019-03-28T00:14:39.856Z,12.20
2019-03-28T00:17:11.167Z,12.20
2019-03-28T00:19:42.204Z,12.20
2019-03-28T00:22:18.221Z,12.20
2019-03-28T00:24:54.809Z,12.30
2019-03-28T00:27:25.995Z,12.30
2019-03-28T00:29:57.074Z,12.20
2019-03-28T00:32:28.055Z,12.20
2019-03-28T00:34:59.192Z,12.10
2019-03-28T00:37:30.213Z,12.10
2019-03-28T00:40:01.433Z,12.10
2019-03-28T00:42:33.084Z,12.00
2019-03-28T00:45:04.196Z,12.00
2019-03-28T00:47:36.179Z,12.00
2019-03-28T00:50:08.263Z,12.00
2019-03-28T00:52:39.402Z,11.90
2019-03-28T00:55:11.311Z,11.70
2019-03-28T00:57:42.521Z,11.70
2019-03-28T01:00:14.754Z,11.80
2019-03-28T01:02:46.225Z,11.80
2019-03-28T01:05:17.409Z,11.70
2019-03-28T01:07:48.443Z,11.80
2019-03-28T01:10:19.582Z,11.80
2019-03-28T01:12:50.676Z,11.70
2019-03-28T01:15:21.637Z,11.80
2019-03-28T01:17:52.767Z,11.80
2019-03-28T01:20:24.208Z,11.90
2019-03-28T01:22:55.195Z,11.90
2019-03-28T01:25:27.466Z,11.90
2019-03-28T01:27:58.829Z,11.90
2019-03-28T01:30:29.787Z,11.90
2019-03-28T01:33:01.163Z,11.60
2019-03-28T01:35:32.578Z,11.50
2019-03-28T01:38:03.964Z,11.70
2019-03-28T01:40:35.246Z,11.60
2019-03-28T01:43:06.640Z,11.70
2019-03-28T01:45:37.651Z,11.70
2019-03-28T01:48:09.246Z,11.70
2019-03-28T01:50:41.135Z,11.70
2019-03-28T01:53:12.502Z,11.70
2019-03-28T01:55:43.808Z,11.70
2019-03-28T01:58:15.171Z,11.60
2019-03-28T02:00:46.273Z,11.60
2019-03-28T02:03:17.313Z,11.60
2019-03-28T02:05:48.553Z,11.60
2019-03-28T02:08:19.987Z,11.60
2019-03-28T02:10:51.035Z,11.40
2019-03-28T02:13:22.286Z,11.60
2019-03-28T02:15:53.726Z,11.60
2019-03-28T02:18:25.084Z,11.60
2019-03-28T02:20:56.149Z,11.70
2019-03-28T02:23:27.570Z,11.60
2019-03-28T02:25:59.178Z,11.20
2019-03-28T02:28:30.374Z,11.30
2019-03-28T02:31:01.431Z,11.30
2019-03-28T02:33:32.462Z,11.20
2019-03-28T02:36:04.079Z,11.20
2019-03-28T02:38:35.233Z,11.10
2019-03-28T02:41:06.627Z,11.10
2019-03-28T02:43:37.994Z,11.20
2019-03-28T02:46:09.271Z,11.00
2019-03-28T02:48:40.395Z,10.90
2019-03-28T02:51:11.490Z,11.10
2019-03-28T02:53:42.692Z,11.20
2019-03-28T02:56:14.254Z,11.20
2019-03-28T02:58:45.305Z,11.30
2019-03-28T03:01:16.237Z,11.20
2019-03-28T03:03:47.815Z,11.30
2019-03-28T03:06:18.891Z,11.10
2019-03-28T03:08:50.255Z,11.10
2019-03-28T03:11:21.501Z,11.00
2019-03-28T03:13:52.827Z,11.10
2019-03-28T03:16:23.903Z,11.10
2019-03-28T03:18:55.150Z,11.10
2019-03-28T03:21:26.549Z,11.20
2019-03-28T03:23:57.630Z,11.00
2019-03-28T03:26:28.837Z,11.00
2019-03-28T03:29:00.400Z,11.10
2019-03-28T03:31:31.560Z,11.00
2019-03-28T03:34:05.110Z,11.10
2019-03-28T03:36:35.837Z,10.80
2019-03-28T03:39:09.978Z,10.70
2019-03-28T03:41:41.108Z,10.60
2019-03-28T03:44:12.917Z,10.90
2019-03-28T03:46:44.343Z,10.80
2019-03-28T03:49:15.521Z,10.90
2019-03-28T03:51:46.759Z,10.90
2019-03-28T03:54:18.173Z,11.00
2019-03-28T03:56:49.580Z,10.90
2019-03-28T03:59:20.788Z,11.00
2019-03-28T04:01:51.722Z,11.10
2019-03-28T04:04:22.942Z,11.10
2019-03-28T04:06:54.018Z,11.10
2019-03-28T04:09:25.325Z,11.10
2019-03-28T04:11:56.414Z,11.20
2019-03-28T04:14:27.415Z,11.20
2019-03-28T04:16:58.581Z,11.20
2019-03-28T04:19:29.946Z,11.20
2019-03-28T04:22:01.220Z,11.30
2019-03-28T04:24:32.204Z,11.30
2019-03-28T04:27:03.559Z,11.20
2019-03-28T04:29:35.369Z,11.20
2019-03-28T04:32:06.525Z,11.20
2019-03-28T04:34:37.556Z,11.20
2019-03-28T04:37:08.779Z,11.20
2019-03-28T04:39:40.312Z,11.20
2019-03-28T04:42:11.371Z,11.30
2019-03-28T04:44:42.649Z,11.20
2019-03-28T04:47:14.063Z,11.10
2019-03-28T04:49:45.158Z,11.10
2019-03-28T04:52:16.438Z,11.00
2019-03-28T04:54:47.867Z,11.10
2019-03-28T04:57:19.005Z,11.10
2019-03-28T04:59:50.169Z,11.00
2019-03-28T05:02:21.462Z,11.00
2019-03-28T05:04:52.575Z,11.00
2019-03-28T05:07:23.979Z,10.90
2019-03-28T05:09:55.089Z,11.00
2019-03-28T05:12:26.146Z,10.90
2019-03-28T05:15:02.618Z,10.90
2019-03-28T05:17:33.896Z,10.90
2019-03-28T05:20:05.875Z,10.90
2019-03-28T05:22:36.781Z,10.90
2019-03-28T05:25:08.970Z,11.00
2019-03-28T05:27:39.850Z,11.00
2019-03-28T05:30:12.850Z,11.00
2019-03-28T05:32:44.017Z,11.00
2019-03-28T05:35:15.560Z,11.10
2019-03-28T05:37:47.612Z,11.10
2019-03-28T05:40:18.597Z,11.20
2019-03-28T05:42:50.004Z,11.20
2019-03-28T05:45:21.073Z,11.20
2019-03-28T05:47:52.156Z,11.20
2019-03-28T05:50:27.682Z,11.30
2019-03-28T05:52:58.832Z,11.30
2019-03-28T05:55:29.921Z,11.20
2019-03-28T05:58:01.121Z,11.30
2019-03-28T06:00:33.022Z,11.30
2019-03-28T06:03:04.894Z,11.30
2019-03-28T06:05:36.293Z,11.20
2019-03-28T06:08:13.696Z,11.10
2019-03-28T06:10:44.783Z,11.20
2019-03-28T06:13:16.119Z,11.10
2019-03-28T06:15:47.413Z,11.00
2019-03-28T06:18:18.291Z,11.00
2019-03-28T06:20:49.302Z,11.00
2019-03-28T06:23:20.767Z,10.90
2019-03-28T06:25:51.803Z,10.80
2019-03-28T06:28:22.915Z,10.90
2019-03-28T06:30:55.950Z,11.00
2019-03-28T06:33:27.369Z,11.10
2019-03-28T06:35:58.816Z,11.30
2019-03-28T06:38:30.237Z,11.40
2019-03-28T06:41:01.646Z,11.40
2019-03-28T06:43:33.083Z,11.40
2019-03-28T06:46:04.118Z,11.40
2019-03-28T06:48:35.488Z,11.50
2019-03-28T06:51:07.608Z,11.70
2019-03-28T06:53:38.733Z,12.00
2019-03-28T06:56:09.873Z,12.10
2019-03-28T06:58:40.858Z,12.10
2019-03-28T07:01:12.034Z,12.30
2019-03-28T07:03:43.545Z,12.50
2019-03-28T07:06:33.799Z,12.70
2019-03-28T07:09:07.117Z,12.80
2019-03-28T07:11:38.853Z,12.90
2019-03-28T07:14:09.993Z,12.90
2019-03-28T07:16:41.139Z,12.90
2019-03-28T07:19:12.920Z,12.80
2019-03-28T07:21:44.406Z,12.80
2019-03-28T07:24:15.817Z,13.00
2019-03-28T07:26:47.035Z,13.10
2019-03-28T07:29:18.248Z,13.20
2019-03-28T07:31:49.577Z,13.30
2019-03-28T07:34:20.804Z,13.60
2019-03-28T07:36:52.166Z,13.40
2019-03-28T07:39:23.338Z,12.40
2019-03-28T07:41:54.553Z,12.80
2019-03-28T07:44:25.988Z,13.10
2019-03-28T07:46:57.011Z,13.10
2019-03-28T07:49:28.023Z,12.90
2019-03-28T07:51:59.203Z,12.90
2019-03-28T07:54:30.329Z,12.60
2019-03-28T07:57:01.982Z,12.80
2019-03-28T07:59:33.394Z,13.10
2019-03-28T08:02:04.819Z,13.20
2019-03-28T08:04:36.092Z,12.90
2019-03-28T08:07:26.013Z,12.60
2019-03-28T08:09:57.355Z,12.60
2019-03-28T08:12:28.397Z,12.80
2019-03-28T08:14:59.709Z,12.50
2019-03-28T08:17:30.917Z,13.00
2019-03-28T08:20:02.256Z,13.30
2019-03-28T08:22:33.674Z,12.80
2019-03-28T08:25:09.593Z,12.80
2019-03-28T08:27:38.011Z,13.00
2019-03-28T08:33:57.076Z,13.30
2019-03-28T08:36:29.697Z,13.20
2019-03-28T08:39:01.053Z,13.40
2019-03-28T08:41:32.036Z,13.50
2019-03-28T08:44:03.370Z,13.60
2019-03-28T08:46:34.857Z,13.60
2019-03-28T08:49:06.049Z,13.60
2019-03-28T08:51:37.505Z,13.50
2019-03-28T08:54:08.457Z,13.30
2019-03-28T08:56:39.988Z,13.50
2019-03-28T08:59:11.101Z,13.80
2019-03-28T09:01:42.307Z,13.70
2019-03-28T09:04:13.432Z,13.80
2019-03-28T09:06:44.476Z,13.80
2019-03-28T09:09:16.162Z,13.80
2019-03-28T09:11:47.361Z,13.40
2019-03-28T09:14:18.597Z,14.00
2019-03-28T09:16:49.507Z,14.70
2019-03-28T09:19:20.605Z,15.00
2019-03-28T09:21:51.583Z,15.20
2019-03-28T09:24:22.724Z,15.60
2019-03-28T09:26:54.494Z,15.50
2019-03-28T09:29:25.804Z,14.60
2019-03-28T09:31:57.297Z,15.50
2019-03-28T09:34:28.602Z,15.60
2019-03-28T09:36:59.692Z,15.70
2019-03-28T09:39:31.253Z,16.10
2019-03-28T09:42:02.485Z,16.10
2019-03-28T09:44:33.963Z,15.80
2019-03-28T09:47:05.068Z,15.70
2019-03-28T09:49:36.234Z,16.40
2019-03-28T09:52:13.181Z,17.00
2019-03-28T09:54:44.233Z,16.70
2019-03-28T09:57:15.593Z,16.40
2019-03-28T09:59:46.584Z,16.80
2019-03-28T10:02:17.701Z,16.80
2019-03-28T10:04:48.781Z,16.70
2019-03-28T10:07:20.401Z,16.10
2019-03-28T10:09:51.515Z,16.10
2019-03-28T10:12:23.003Z,16.10
2019-03-28T10:14:54.365Z,16.20
2019-03-28T10:17:25.496Z,15.70
2019-03-28T10:19:56.669Z,16.20
2019-03-28T10:22:30.763Z,15.70
2019-03-28T10:25:01.928Z,16.00
2019-03-28T10:27:33.346Z,15.40
2019-03-28T10:30:05.099Z,15.70
2019-03-28T10:32:36.811Z,15.90
2019-03-28T10:35:08.681Z,16.40
2019-03-28T10:37:39.722Z,16.30
2019-03-28T10:40:10.987Z,16.30
2019-03-28T10:42:42.266Z,16.30
2019-03-28T10:45:13.637Z,16.00
2019-03-28T10:47:44.592Z,15.60
2019-03-28T10:50:16.125Z,15.70
2019-03-28T10:52:47.550Z,15.80
2019-03-28T10:55:18.688Z,15.60
2019-03-28T10:57:50.052Z,15.60
2019-03-28T11:00:24.357Z,15.30
2019-03-28T11:02:54.542Z,15.20
2019-03-28T11:05:25.710Z,15.60
2019-03-28T11:07:56.824Z,15.60
2019-03-28T11:10:30.553Z,15.20
2019-03-28T11:13:00.651Z,15.30
2019-03-28T11:15:31.834Z,15.50
2019-03-28T11:18:03.208Z,15.70
2019-03-28T11:20:35.697Z,15.80
2019-03-28T11:23:07.501Z,15.90
2019-03-28T11:25:38.615Z,15.70
2019-03-28T11:28:09.962Z,15.80
2019-03-28T11:30:41.238Z,15.80
2019-03-28T11:33:12.478Z,15.90
2019-03-28T11:35:43.482Z,15.70
2019-03-28T11:38:15.012Z,15.30
2019-03-28T11:40:46.564Z,15.20
2019-03-28T11:43:17.733Z,15.40
2019-03-28T11:45:48.533Z,15.70
2019-03-28T11:48:19.983Z,15.30
2019-03-28T11:50:51.090Z,15.10
2019-03-28T11:53:22.170Z,15.20
2019-03-28T11:55:53.406Z,14.70
2019-03-28T11:58:24.563Z,14.80
2019-03-28T12:00:55.793Z,14.80
2019-03-28T12:03:26.964Z,14.60
2019-03-28T12:05:58.431Z,15.00
2019-03-28T12:08:29.688Z,15.00
2019-03-28T12:11:01.198Z,15.30
2019-03-28T12:13:44.316Z,15.60
2019-03-28T12:16:05.614Z,15.60
2019-03-28T12:18:36.630Z,14.90
2019-03-28T12:21:07.985Z,15.10
2019-03-28T12:23:39.636Z,15.50
2019-03-28T12:26:13.046Z,16.00
2019-03-28T12:28:44.638Z,15.90
2019-03-28T12:31:15.829Z,15.70
2019-03-28T12:33:47.110Z,15.90
2019-03-28T12:36:18.825Z,16.10
2019-03-28T12:38:50.270Z,15.70
2019-03-28T12:41:21.652Z,15.80
2019-03-28T12:43:52.653Z,16.30
2019-03-28T12:46:25.677Z,16.40
2019-03-28T12:48:57.107Z,16.60
2019-03-28T12:51:29.212Z,16.40
2019-03-28T12:54:00.963Z,16.50
2019-03-28T12:56:32.331Z,17.20
2019-03-28T12:59:04.036Z,17.60
2019-03-28T13:01:34.980Z,17.80
2019-03-28T13:04:06.127Z,16.80
2019-03-28T13:06:37.175Z,16.20
2019-03-28T13:09:11.076Z,16.70
2019-03-28T13:11:42.160Z,15.70
2019-03-28T13:14:13.342Z,16.20
2019-03-28T13:16:44.684Z,16.40
2019-03-28T13:19:15.803Z,15.90
2019-03-28T13:21:46.976Z,16.10
2019-03-28T13:24:18.105Z,15.60
2019-03-28T13:26:49.250Z,15.40
2019-03-28T13:29:20.367Z,15.40
2019-03-28T13:31:51.430Z,14.80
2019-03-28T13:34:22.590Z,14.90
2019-03-28T13:36:53.886Z,15.00
2019-03-28T13:39:25.004Z,15.30
2019-03-28T13:41:56.432Z,15.00
2019-03-28T13:44:30.122Z,15.10
2019-03-28T13:47:00.315Z,15.20
2019-03-28T13:49:33.516Z,15.00
2019-03-28T13:52:04.952Z,14.90
2019-03-28T13:54:36.161Z,15.10
2019-03-28T13:57:07.205Z,15.30
2019-03-28T13:59:39.511Z,14.90
2019-03-28T14:02:10.892Z,14.50
2019-03-28T14:04:42.221Z,14.70
2019-03-28T14:07:17.120Z,14.60
2019-03-28T14:09:46.766Z,14.60
2019-03-28T14:12:17.998Z,14.50
2019-03-28T14:14:49.134Z,14.40
2019-03-28T14:17:20.242Z,14.80
2019-03-28T14:19:51.599Z,15.10
2019-03-28T14:22:22.603Z,15.30
2019-03-28T14:24:53.937Z,15.10
2019-03-28T14:27:25.110Z,15.00
2019-03-28T14:29:56.412Z,15.30
2019-03-28T14:32:28.622Z,15.50
2019-03-28T14:34:59.725Z,15.40
2019-03-28T14:37:30.814Z,15.40
2019-03-28T14:40:02.417Z,15.30
2019-03-28T14:42:33.639Z,15.40
2019-03-28T14:45:05.118Z,15.10
2019-03-28T14:47:36.212Z,15.20
2019-03-28T14:50:09.558Z,15.20
2019-03-28T14:52:40.986Z,15.10
2019-03-28T14:55:12.171Z,15.20
2019-03-28T14:57:44.291Z,15.30
2019-03-28T15:00:38.386Z,15.30
2019-03-28T15:03:09.592Z,15.00
2019-03-28T15:05:40.678Z,15.30
2019-03-28T15:08:12.147Z,15.30
2019-03-28T15:10:43.808Z,15.30
2019-03-28T15:13:15.030Z,15.40
2019-03-28T15:15:46.487Z,15.70
2019-03-28T15:18:17.542Z,15.70
2019-03-28T15:20:48.757Z,15.60
2019-03-28T15:23:20.011Z,15.50
2019-03-28T15:25:51.460Z,15.70
2019-03-28T15:28:22.502Z,15.80
2019-03-28T15:30:53.580Z,15.70
2019-03-28T15:33:38.340Z,15.60
2019-03-28T15:35:58.736Z,15.60
2019-03-28T15:38:31.503Z,15.90
2019-03-28T15:41:02.891Z,16.00
2019-03-28T15:43:33.890Z,16.00
2019-03-28T15:46:05.059Z,15.80
2019-03-28T15:48:36.408Z,16.00
2019-03-28T15:51:07.628Z,15.90
2019-03-28T15:53:38.738Z,15.90
2019-03-28T15:56:10.102Z,15.80
2019-03-28T15:58:41.195Z,15.60
2019-03-28T16:01:12.420Z,15.80
2019-03-28T16:03:52.815Z,15.90
2019-03-28T16:06:16.951Z,15.70
2019-03-28T16:08:48.775Z,15.60
2019-03-28T16:11:20.152Z,15.60
2019-03-28T16:13:51.252Z,15.50
2019-03-28T16:16:22.292Z,15.70
2019-03-28T16:18:53.563Z,15.80
2019-03-28T16:21:26.689Z,15.80
2019-03-28T16:23:58.246Z,15.70
2019-03-28T16:26:29.232Z,15.80
2019-03-28T16:29:00.421Z,15.50
2019-03-28T16:31:31.557Z,15.40
2019-03-28T16:34:07.260Z,15.50
2019-03-28T16:36:35.489Z,15.60
2019-03-28T16:39:08.636Z,15.70
2019-03-28T16:41:40.281Z,15.70
2019-03-28T16:44:11.422Z,15.60
2019-03-28T16:46:42.878Z,15.60
2019-03-28T16:49:14.470Z,15.60
2019-03-28T16:51:45.403Z,15.40
2019-03-28T16:54:16.626Z,15.50
2019-03-28T16:56:47.731Z,15.60
2019-03-28T16:59:19.049Z,15.60
2019-03-28T17:01:50.240Z,15.60
2019-03-28T17:04:22.942Z,15.60
2019-03-28T17:06:54.859Z,15.50
2019-03-28T17:09:27.086Z,15.50
2019-03-28T17:11:58.393Z,15.50
2019-03-28T17:14:29.802Z,15.40
2019-03-28T17:17:01.197Z,15.40
2019-03-28T17:19:32.829Z,15.40
2019-03-28T17:22:03.928Z,15.40
2019-03-28T17:24:41.199Z,15.40
2019-03-28T17:27:12.346Z,15.30
2019-03-28T17:29:43.708Z,15.30
2019-03-28T17:32:14.822Z,15.30
2019-03-28T17:34:46.165Z,15.20
2019-03-28T17:37:26.354Z,15.20
2019-03-28T17:39:57.798Z,15.10
2019-03-28T17:42:30.633Z,15.10
2019-03-28T17:45:02.017Z,15.20
2019-03-28T17:47:33.197Z,15.10
2019-03-28T17:50:04.898Z,15.00
2019-03-28T17:52:36.307Z,15.00
2019-03-28T17:55:07.529Z,15.00
2019-03-28T17:57:39.703Z,15.00
2019-03-28T18:00:12.445Z,15.00
2019-03-28T18:02:44.144Z,14.90
2019-03-28T18:05:15.994Z,14.90
2019-03-28T18:07:47.247Z,14.90
2019-03-28T18:10:18.772Z,14.90
2019-03-28T18:12:49.933Z,14.90
2019-03-28T18:15:21.074Z,14.90
2019-03-28T18:17:52.439Z,14.90
2019-03-28T18:20:23.774Z,14.80
2019-03-28T18:22:55.148Z,14.80
2019-03-28T18:25:26.270Z,14.80
2019-03-28T18:27:57.638Z,14.80
2019-03-28T18:30:28.886Z,14.80
2019-03-28T18:33:00.301Z,14.90
2019-03-28T18:35:33.147Z,14.80
2019-03-28T18:38:04.326Z,14.80
2019-03-28T18:40:35.391Z,14.80
2019-03-28T18:43:06.566Z,14.70
2019-03-28T18:45:37.862Z,14.60
2019-03-28T18:48:09.483Z,14.50
2019-03-28T18:50:41.633Z,14.50
2019-03-28T18:53:12.818Z,14.60
2019-03-28T18:55:43.985Z,14.50
2019-03-28T18:58:15.106Z,14.30
2019-03-28T19:00:48.174Z,14.20
2019-03-28T19:03:18.966Z,14.10
2019-03-28T19:05:50.408Z,14.10
2019-03-28T19:08:21.857Z,14.30
2019-03-28T19:10:53.018Z,14.30
2019-03-28T19:13:24.398Z,14.30
2019-03-28T19:15:55.731Z,14.40
2019-03-28T19:18:26.856Z,14.40
2019-03-28T19:20:57.872Z,14.30
2019-03-28T19:23:29.309Z,14.20
2019-03-28T19:26:01.046Z,14.20
2019-03-28T19:28:32.243Z,14.30
2019-03-28T19:31:03.442Z,14.30
2019-03-28T19:33:38.033Z,14.30
2019-03-28T19:36:07.727Z,14.20
2019-03-28T19:38:39.572Z,14.20
2019-03-28T19:41:11.321Z,14.20
2019-03-28T19:43:42.758Z,14.20
2019-03-28T19:46:13.930Z,14.20
2019-03-28T19:48:45.469Z,14.20
2019-03-28T19:51:16.524Z,14.20
2019-03-28T19:53:48.001Z,14.10
2019-03-28T19:56:19.165Z,14.10
2019-03-28T19:58:50.265Z,14.00
2019-03-28T20:01:21.203Z,14.00
2019-03-28T20:03:52.569Z,13.90
2019-03-28T20:06:24.425Z,13.80
2019-03-28T20:08:56.029Z,13.60
2019-03-28T20:11:27.285Z,13.50
2019-03-28T20:13:58.525Z,13.50
2019-03-28T20:16:29.622Z,13.50
2019-03-28T20:19:02.135Z,13.40
2019-03-28T20:21:33.444Z,13.50
2019-03-28T20:24:04.648Z,13.60
2019-03-28T20:26:35.771Z,13.60
2019-03-28T20:29:06.928Z,13.60
2019-03-28T20:31:38.787Z,13.60
2019-03-28T20:34:10.059Z,13.60
2019-03-28T20:36:44.044Z,13.60
2019-03-28T20:39:14.544Z,13.70
2019-03-28T20:41:45.945Z,13.60
2019-03-28T20:44:17.286Z,13.70
2019-03-28T20:46:48.333Z,13.70
2019-03-28T20:49:19.692Z,13.60
2019-03-28T20:51:51.039Z,13.60
2019-03-28T20:54:22.317Z,13.60
2019-03-28T20:56:53.341Z,13.60
2019-03-28T20:59:24.453Z,13.50
2019-03-28T21:01:56.913Z,13.50
2019-03-28T21:04:31.675Z,13.40
2019-03-28T21:07:00.999Z,13.30
2019-03-28T21:09:32.050Z,13.40
2019-03-28T21:12:09.118Z,13.50
2019-03-28T21:14:40.259Z,13.50
2019-03-28T21:17:11.375Z,13.50
2019-03-28T21:19:42.430Z,13.40
2019-03-28T21:22:13.869Z,13.40
2019-03-28T21:24:45.427Z,13.30
2019-03-28T21:27:16.608Z,13.40
2019-03-28T21:29:49.152Z,13.30
2019-03-28T21:32:20.955Z,13.30
2019-03-28T21:34:52.340Z,13.30
2019-03-28T21:37:24.264Z,13.30
2019-03-28T21:39:56.162Z,13.30
2019-03-28T21:42:27.347Z,13.40
2019-03-28T21:44:58.971Z,13.40
2019-03-28T21:47:30.571Z,13.50
2019-03-28T21:50:01.864Z,13.50
2019-03-28T21:52:34.543Z,13.50
2019-03-28T21:55:05.980Z,13.50
2019-03-28T21:57:38.116Z,13.50
2019-03-28T22:00:10.755Z,13.40
2019-03-28T22:02:41.808Z,13.40
2019-03-28T22:05:13.351Z,13.50
2019-03-28T22:07:44.385Z,13.40
2019-03-28T22:10:17.046Z,13.40
2019-03-28T22:12:48.621Z,13.40
2019-03-28T22:15:19.770Z,13.40
2019-03-28T22:17:50.994Z,13.50
2019-03-28T22:20:22.203Z,13.40
2019-03-28T22:22:53.355Z,13.30
2019-03-28T22:25:24.553Z,13.10
2019-03-28T22:27:56.200Z,13.10
2019-03-28T22:30:27.596Z,13.20
2019-03-28T22:33:00.972Z,13.30
2019-03-28T22:35:32.708Z,13.40
2019-03-28T22:38:03.856Z,13.20
2019-03-28T22:40:35.532Z,13.10
2019-03-28T22:43:07.331Z,13.20
2019-03-28T22:45:38.726Z,13.20
2019-03-28T22:48:11.528Z,13.30
2019-03-28T22:50:43.565Z,13.30
2019-03-28T22:53:18.904Z,13.40
2019-03-28T22:55:50.348Z,13.50
2019-03-28T22:58:22.099Z,13.50
2019-03-28T23:00:55.443Z,13.50
2019-03-28T23:03:26.855Z,13.50
2019-03-28T23:05:58.159Z,13.50
2019-03-28T23:08:31.315Z,13.50
2019-03-28T23:11:02.859Z,13.50
2019-03-28T23:13:34.041Z,13.50
2019-03-28T23:16:05.474Z,13.50
2019-03-28T23:18:36.582Z,13.40
2019-03-28T23:21:07.814Z,13.40
2019-03-28T23:23:39.011Z,13.40
2019-03-28T23:26:10.142Z,13.40
2019-03-28T23:28:41.284Z,13.40
2019-03-28T23:31:12.248Z,13.30
2019-03-28T23:33:43.421Z,13.10
2019-03-28T23:36:14.553Z,13.20
2019-03-28T23:38:45.933Z,13.20
2019-03-28T23:41:17.536Z,13.20
2019-03-28T23:43:48.859Z,13.30
2019-03-28T23:46:20.205Z,13.30
2019-03-28T23:48:51.515Z,13.40
2019-03-28T23:51:31.069Z,13.30
2019-03-28T23:54:02.279Z,13.20
2019-03-28T23:56:33.783Z,13.20
2019-03-28T23:59:05.001Z,13.30
